Terminal Aerodrome Forecast
Issued by NWS

Home | Current Version | Previous Version | Text Only | Print | Product List | Glossary On
Versions: 1 2 3 4 5 6 7 8 9 10 11 12 13 14 15 16 17 18 19 20 21
650
FTUS44 KTSA 202024 AAD
TAFFYV
TAF AMD
KFYV 202024Z 2020/2118 29015KT 3SM RA BR BKN015
      TEMPO 2020/2022 1SM +TSRA BKN007 OVC015CB
     FM202200 35013G21KT 4SM -RA BR OVC007
     FM210700 35014G23KT P6SM VCSH OVC015=

USA.gov is the U.S. government's official web portal to all federal, state and local government web resources and services.